• Join FlightAware (Why Join?)
  • Login
  • US Flag 
03:01AM EDT


 

Airport Tracker/Info


-or-


 

Live Flight TrackerFlight Track Log ✈ AAL2345 ✈ 05-Jun-2013 ✈ KORD - KDFW

Flight Track Log - Related Links

Times and Time Zones

All times are in EDT time to prevent confusion due to time zone crossing. See the AAL2345 flight status page for this flight to view local times or setup timezone preferences in your user account.

Time Position Orientation Groundspeed Altitude Reporting Facility
EDT Latitude Longitude Course Direction KTS MPH feet Rate Location/Type
06:50PM 41.9333 -87.9167 194° South 193 222 1,800  Level Chicago TRACON
06:51PM 41.9000 -87.9333 200° South 179 206 3,600 1,680 Climbing Chicago TRACON
06:53PM 41.7595 -88.1695 201° Southwest  Level Estimated
06:53PM 41.8156 -87.9739 200° South 229 264 5,900  Level Chicago Center
06:54PM 41.6853 -88.2567 197° South  Level Estimated
06:54PM 41.7292 -88.0217 202° Southwest 282 325 8,800  Level Chicago Center
06:55PM 41.5912 -88.2168 162° South  Level FlightAware Approximate
06:55PM 41.6536 -88.0567 199° South 289 333 11,500  Level Chicago Center
06:56PM 41.5175 -88.3045 194° South  Level Estimated
06:56PM 41.5703 -88.0978 200° South 322 371 13,300  Level Chicago Center
06:57PM 41.4853 -88.1408 201° Southwest 335 386 15,700 2,280 Climbing Chicago Center
06:58PM 41.3794 -88.1939 201° Southwest 352 405 18,100 2,160 Climbing Chicago Center
06:59PM 41.2875 -88.2336 198° South 354 407 20,200 1,920 Climbing Chicago Center
07:00PM 41.1958 -88.2750 199° South 353 406 22,100 1,500 Climbing Chicago Center
07:01PM 41.1031 -88.3175 199° South 355 409 23,400 1,020 Climbing Chicago Center
07:02PM 40.9806 -88.3728 199° South 387 445 24,300 1,020 Climbing Chicago Center
07:03PM 40.8731 -88.4206 199° South 409 471 25,600 1,260 Climbing Chicago Center
07:04PM 40.7642 -88.4692 199° South 415 478 27,000 1,440 Climbing Chicago Center
07:05PM 40.6528 -88.5183 199° South 421 484 28,600 1,500 Climbing Chicago Center
07:06PM 40.5467 -88.5628 198° South 409 471 30,200 1,380 Climbing Chicago Center
07:07PM 40.4211 -88.6225 200° South 400 460 31,500 840 Climbing Chicago Center
07:08PM 40.3164 -88.6731 200° South 397 457 32,000 240 Climbing Chicago Center
07:09PM 40.2358 -88.7742 224° Southwest 398 458 32,000  Level Chicago Center
07:11PM 40.0922 -88.9558 224° Southwest 398 458 32,000  Level Kansas City Center
07:12PM 40.0122 -89.0569 224° Southwest 399 459 32,000  Level Kansas City Center
07:13PM 39.9306 -89.1575 223° Southwest 401 461 32,000  Level Kansas City Center
07:14PM 39.8508 -89.2597 225° Southwest 401 461 32,000  Level Kansas City Center
07:15PM 39.7606 -89.3886 228° Southwest 400 460 32,000  Level Kansas City Center
07:16PM 39.6931 -89.4864 228° Southwest 397 457 32,000  Level Kansas City Center
07:17PM 39.6189 -89.5942 228° Southwest 399 459 32,000  Level Kansas City Center
07:18PM 39.5450 -89.7022 228° Southwest 402 463 32,000  Level Kansas City Center
07:19PM 39.4558 -89.8294 228° Southwest 400 460 32,000  Level Kansas City Center
07:20PM 39.3828 -89.9364 229° Southwest 399 459 32,000  Level Kansas City Center
07:21PM 39.3092 -90.0392 227° Southwest 394 453 32,000  Level Kansas City Center
07:22PM 39.2342 -90.1450 228° Southwest 398 458 32,000  Level Kansas City Center
07:23PM 39.1603 -90.2511 228° Southwest 401 461 32,000  Level Kansas City Center
07:25PM 39.0714 -90.3767 228° Southwest 398 458 32,000  Level Kansas City Center
07:26PM 38.9972 -90.4814 228° Southwest 399 459 32,000  Level Kansas City Center
07:27PM 38.9203 -90.5906 228° Southwest 396 456 32,000  Level Kansas City Center
07:28PM 38.8492 -90.6886 227° Southwest 400 460 32,000  Level Kansas City Center
07:29PM 38.7733 -90.7933 227° Southwest 404 465 32,000  Level Kansas City Center
07:30PM 38.6836 -90.9172 227° Southwest 401 461 32,000  Level Kansas City Center
07:31PM 38.6086 -91.0225 228° Southwest 402 463 32,000  Level Kansas City Center
07:32PM 38.5325 -91.1269 227° Southwest 403 464 32,000  Level Kansas City Center
07:33PM 38.4561 -91.2308 227° Southwest 404 465 32,000  Level Kansas City Center
07:34PM 38.3781 -91.3361 227° Southwest 407 468 32,000  Level Kansas City Center
07:35PM 38.2925 -91.4511 227° Southwest 395 455 32,000  Level Kansas City Center
07:36PM 38.2164 -91.5556 227° Southwest 396 456 32,000  Level Kansas City Center
07:37PM 38.1386 -91.6608 227° Southwest 404 465 32,000  Level Kansas City Center
07:38PM 38.0619 -91.7633 226° Southwest 399 459 32,000  Level Kansas City Center
07:39PM 37.9706 -91.8878 227° Southwest 398 458 32,000  Level Kansas City Center
07:40PM 37.8931 -91.9903 226° Southwest 397 457 32,000  Level Kansas City Center
07:41PM 37.8172 -92.0906 226° Southwest 394 453 32,000  Level Kansas City Center
07:42PM 37.7378 -92.1961 226° Southwest 399 459 32,000  Level Kansas City Center
07:43PM 37.6644 -92.2936 226° Southwest 397 457 32,000  Level Kansas City Center
07:44PM 37.5856 -92.3997 227° Southwest 396 456 32,000  Level Kansas City Center
07:45PM 37.5094 -92.5008 227° Southwest 395 455 32,000  Level Kansas City Center
07:46PM 37.4339 -92.6014 227° Southwest 394 453 32,000  Level Kansas City Center
07:47PM 37.3586 -92.7006 226° Southwest 390 449 32,000  Level Kansas City Center
07:48PM 37.2681 -92.8167 226° Southwest 388 447 32,000  Level Kansas City Center
07:49PM 37.1919 -92.9156 226° Southwest 390 449 32,000  Level Kansas City Center
07:50PM 37.1144 -93.0117 225° Southwest 391 450 32,000  Level Kansas City Center
07:51PM 37.0372 -93.1100 225° Southwest 393 452 32,000  Level Kansas City Center
07:52PM 36.9606 -93.2103 226° Southwest 396 456 32,000  Level Kansas City Center
07:53PM 36.8839 -93.3092 226° Southwest 395 455 32,000  Level Kansas City Center
07:54PM 36.7969 -93.4228 226° Southwest 395 455 32,000  Level Kansas City Center
07:56PM 36.7183 -93.5233 226° Southwest 401 461 32,000  Level Kansas City Center
07:57PM 36.6403 -93.6242 226° Southwest 403 464 32,000  Level Kansas City Center
07:58PM 36.5608 -93.7244 225° Southwest 405 466 32,000  Level Kansas City Center
07:59PM 36.4814 -93.8267 226° Southwest 406 467 32,000  Level Kansas City Center
08:00PM 36.4008 -93.9269 225° Southwest 407 468 32,000  Level Kansas City Center
08:00PM 36.3417 -93.9794 216° Southwest 406 467 32,000  Level Memphis Center
08:01PM 36.2336 -94.0364 203° Southwest 420 483 32,000  Level Memphis Center
08:02PM 36.1256 -94.0931 203° Southwest 414 476 32,000  Level Memphis Center
08:03PM 36.0197 -94.1500 204° Southwest 414 476 32,000  Level Memphis Center
08:04PM 35.9136 -94.2067 203° Southwest 414 476 32,000  Level Memphis Center
08:05PM 35.8097 -94.2633 204° Southwest 414 476 32,000  Level Memphis Center
08:06PM 35.7017 -94.3194 203° Southwest 419 482 32,000  Level Memphis Center
08:07PM 35.5997 -94.3733 203° Southwest 419 482 32,000  Level Memphis Center
08:08PM 35.4917 -94.4292 203° Southwest 419 482 32,000  Level Memphis Center
08:10PM 35.2528 -94.5511 203° Southwest 422 486 32,000  Level Fort Worth Center
08:11PM 35.1475 -94.6106 205° Southwest 422 486 32,000  Level Fort Worth Center
08:12PM 35.0425 -94.6647 203° Southwest 422 486 32,000  Level Fort Worth Center
08:13PM 34.9506 -94.7511 218° Southwest 415 478 32,000  Level Fort Worth Center
08:14PM 34.8628 -94.8475 222° Southwest 422 486 32,000 -60 Level Fort Worth Center
08:15PM 34.7750 -94.9411 221° Southwest 427 491 31,900 -480 Descending Fort Worth Center
08:16PM 34.6911 -95.0319 222° Southwest 427 491 31,100 -840 Descending Fort Worth Center
08:17PM 34.6053 -95.1253 222° Southwest 420 483 30,300 -840 Descending Fort Worth Center
08:18PM 34.5153 -95.2183 220° Southwest 425 489 29,500 -840 Descending Fort Worth Center
08:19PM 34.4250 -95.3164 222° Southwest 430 495 28,700 -840 Descending Fort Worth Center
08:20PM 34.3306 -95.4117 220° Southwest 430 495 27,900 -780 Descending Fort Worth Center
08:21PM 34.2383 -95.5092 221° Southwest 438 504 27,200 -720 Descending Fort Worth Center
08:22PM 34.1458 -95.6067 221° Southwest 443 510 26,500 -900 Descending Fort Worth Center
08:23PM 34.0614 -95.6961 221° Southwest 437 503 25,500 -960 Descending Fort Worth Center
08:24PM 33.9731 -95.7881 221° Southwest 427 491 24,600 -840 Descending Fort Worth Center
08:25PM 33.8803 -95.8797 219° Southwest 427 491 23,900 -660 Descending Fort Worth Center
08:26PM 33.7894 -95.9764 222° Southwest 432 497 23,300 -1,500 Descending Fort Worth Center
08:27PM 33.7028 -96.0653 220° Southwest 425 489 21,000 -2,820 Descending Fort Worth Center
08:28PM 33.6183 -96.1539 221° Southwest 419 482 17,700 -3,180 Descending Fort Worth Center
08:29PM 33.5356 -96.2397 221° Southwest 409 471 14,700 -2,280 Descending Fort Worth Center
08:31PM 33.3972 -96.4058 225° Southwest 360 414 11,000 -1,500 Descending Fort Worth Center
08:32PM 33.3392 -96.4736 224° Southwest 314 361 10,200 -1,140 Descending Fort Worth Center
08:33PM 33.2833 -96.5411 225° Southwest 292 336 8,800 -1,500 Descending Fort Worth Center
08:34PM 33.2442 -96.6136 237° Southwest 277 319 7,300 -1,260 Descending Fort Worth Center
08:36PM 33.1362 -96.6805 220° Southwest  Level FlightAware Approximate
08:36PM 33.2056 -96.7803 220° Southwest 277 319 5,100  Level Fort Worth Center
08:37PM 33.1786 -96.8750 251° West 277 319 4,600 -600 Descending Fort Worth Center
08:38PM 33.1603 -96.9519 254° West 282 325 3,900 -840 Descending Fort Worth Center
08:39PM 33.1189 -97.0364 240° Southwest 276 318 3,000 -900 Descending Fort Worth Center